Schneifelwetter: Wetterstation Hallschlag, 537 m . NN
Wetterdaten: Donnerstag, 02.03.2006
Datum Zeit Temp. A. Temp. 2 Feuchte A. Luftdruck Regen Wind Richtung Richtung Sonnenschein Helligkeit T Regen Taupunkt Windchill
02.03.2006 00:00 -5,4 C -4,5 C 90 % 1001 hPa 0,0 l/m 23,1 km/h (4 Bft) W-SW45 250 0 min 0 lux 0,00 min -6,8 C -18,2 C
02.03.2006 00:09 -5,5 C -4,6 C 90 % 1001 hPa 0,0 l/m 19,1 km/h (3 Bft) W-SW22.5 250 0 min 0 lux 0,00 min -6,9 C -16,2 C
02.03.2006 00:24 -5,4 C -4,5 C 90 % 1001 hPa 0,0 l/m 19,0 km/h (3 Bft) W22.5 260 0 min 0 lux 0,00 min -6,8 C -16,1 C
02.03.2006 00:39 -5,4 C -4,5 C 90 % 1001 hPa 0,0 l/m 18,0 km/h (3 Bft) W-SW22.5 250 0 min 0 lux 0,00 min -6,8 C -15,5 C
02.03.2006 00:54 -5,3 C -4,5 C 90 % 1001 hPa 0,0 l/m 24,0 km/h (4 Bft) W-SW45 255 0 min 0 lux 0,00 min -6,7 C -18,5 C
02.03.2006 01:10 -5,3 C -4,5 C 90 % 1001 hPa 0,0 l/m 23,8 km/h (4 Bft) W-SW22.5 255 0 min 0 lux 0,00 min -6,7 C -18,4 C
02.03.2006 01:25 -5,3 C -4,6 C 90 % 1001 hPa 0,0 l/m 21,6 km/h (4 Bft) W-SW22.5 255 0 min 0 lux 0,00 min -6,7 C -17,3 C
02.03.2006 01:40 -5,3 C -4,5 C 91 % 1001 hPa 0,0 l/m 24,3 km/h (4 Bft) W-SW22.5 240 0 min 0 lux 0,00 min -6,5 C -18,6 C
02.03.2006 01:55 -5,3 C -4,6 C 91 % 1001 hPa 0,0 l/m 27,4 km/h (4 Bft) W22.5 260 0 min 0 lux 0,00 min -6,5 C -19,9 C
02.03.2006 02:10 -5,3 C -4,7 C 90 % 1001 hPa 0,0 l/m 19,3 km/h (3 Bft) W-SW22.5 250 0 min 0 lux 0,00 min -6,7 C -16,1 C
02.03.2006 02:25 -5,3 C -4,7 C 90 % 1001 hPa 0,0 l/m 17,9 km/h (3 Bft) W22.5 260 0 min 0 lux 0,00 min -6,7 C -15,3 C
02.03.2006 02:40 -5,1 C -4,8 C 90 % 1001 hPa 0,0 l/m 23,3 km/h (4 Bft) W22.5 260 0 min 0 lux 0,00 min -6,5 C -17,9 C
02.03.2006 02:55 -5,1 C -4,7 C 90 % 1001 hPa 0,0 l/m 26,5 km/h (4 Bft) W45 265 0 min 0 lux 0,00 min -6,5 C -19,3 C
02.03.2006 03:10 -5,3 C -4,8 C 90 % 1000 hPa 0,0 l/m 22,4 km/h (4 Bft) W-SW22.5 250 0 min 0 lux 0,00 min -6,7 C -17,7 C
02.03.2006 03:24 -5,4 C -4,9 C 90 % 1000 hPa 0,0 l/m 27,8 km/h (4 Bft) W-SW22.5 255 0 min 0 lux 0,00 min -6,8 C -20,2 C
02.03.2006 03:39 -5,4 C -5,0 C 90 % 1000 hPa 0,0 l/m 22,8 km/h (4 Bft) W-SW22.5 255 0 min 0 lux 0,00 min -6,8 C -18,0 C
02.03.2006 03:54 -5,5 C -5,1 C 89 % 1000 hPa 0,0 l/m 25,1 km/h (4 Bft) W-SW22.5 250 0 min 0 lux 0,00 min -7,0 C -19,2 C
02.03.2006 04:09 -5,6 C -5,4 C 89 % 1000 hPa 0,0 l/m 15,6 km/h (3 Bft) W-SW22.5 245 0 min 0 lux 0,00 min -7,1 C -14,2 C
02.03.2006 04:24 -5,6 C -5,5 C 90 % 1000 hPa 0,0 l/m 24,4 km/h (4 Bft) W-SW45 250 0 min 0 lux 0,00 min -7,0 C -19,0 C
02.03.2006 04:39 -5,6 C -5,2 C 90 % 1000 hPa 0,0 l/m 27,8 km/h (4 Bft) W-SW22.5 255 0 min 0 lux 0,00 min -7,0 C -20,5 C
02.03.2006 04:54 -5,6 C -5,3 C 90 % 1000 hPa 0,0 l/m 23,1 km/h (4 Bft) W22.5 260 0 min 0 lux 0,00 min -7,0 C -18,4 C
02.03.2006 05:09 -5,6 C -5,4 C 90 % 1000 hPa 0,0 l/m 16,7 km/h (3 Bft) W22.5 260 0 min 0 lux 0,00 min -7,0 C -14,9 C
02.03.2006 05:24 -5,5 C -5,3 C 91 % 1000 hPa 0,0 l/m 18,4 km/h (3 Bft) W22.5 260 0 min 0 lux 0,00 min -6,7 C -15,8 C
02.03.2006 05:39 -5,5 C -5,2 C 91 % 1000 hPa 0,0 l/m 27,7 km/h (4 Bft) W22.5 260 0 min 0 lux 0,00 min -6,7 C -20,3 C
02.03.2006 05:54 -5,6 C -5,2 C 91 % 1000 hPa 0,0 l/m 26,5 km/h (4 Bft) W-SW22.5 255 0 min 0 lux 0,00 min -6,8 C -19,9 C
02.03.2006 06:09 -5,6 C -5,4 C 91 % 1000 hPa 0,0 l/m 23,6 km/h (4 Bft) W22.5 260 0 min 0 lux 0,00 min -6,8 C -18,7 C
02.03.2006 06:24 -5,6 C -5,3 C 91 % 1000 hPa 0,0 l/m 13,0 km/h (3 Bft) W-SW22.5 255 0 min 0 lux 0,00 min -6,8 C -12,3 C
02.03.2006 06:39 -5,6 C -5,2 C 91 % 1000 hPa 0,0 l/m 20,5 km/h (4 Bft) W22.5 260 0 min 0 lux 0,00 min -6,8 C -17,1 C
02.03.2006 06:54 -5,6 C -5,3 C 91 % 1000 hPa 0,0 l/m 31,8 km/h (5 Bft) W22.5 260 0 min 58 lux 0,00 min -6,8 C -21,9 C
02.03.2006 07:09 -5,6 C -5,4 C 91 % 1000 hPa 0,0 l/m 24,5 km/h (4 Bft) W-SW22.5 255 0 min 298 lux 0,00 min -6,8 C -19,1 C
02.03.2006 07:24 -5,8 C -5,7 C 91 % 1000 hPa 0,0 l/m 26,7 km/h (4 Bft) W-SW45 250 0 min 1,34 klux 0,00 min -7,0 C -20,3 C
02.03.2006 07:39 -5,8 C -5,7 C 91 % 1000 hPa 0,0 l/m 18,5 km/h (3 Bft) W22.5 260 0 min 2,17 klux 0,00 min -7,0 C -16,3 C
02.03.2006 08:00 -5,6 C -5,4 C 91 % 1000 hPa 0,0 l/m 38,4 km/h (5 Bft) W45 260 0 min 3,79 klux 0,00 min -6,8 C -23,8 C
02.03.2006 08:15 -5,5 C -5,4 C 91 % 1000 hPa 0,0 l/m 33,2 km/h (5 Bft) W22.5 265 0 min 5,13 klux 0,00 min -6,7 C -22,2 C
02.03.2006 08:30 -5,1 C -5,3 C 90 % 1000 hPa 0,0 l/m 27,4 km/h (4 Bft) W-SW22.5 255 0 min 8,53 klux 0,00 min -6,5 C -19,6 C
02.03.2006 08:45 -4,8 C -5,5 C 89 % 1000 hPa 0,0 l/m 27,8 km/h (4 Bft) W22.5 260 0 min 11,1 klux 0,00 min -6,3 C -19,4 C
02.03.2006 09:00 -4,1 C -5,7 C 89 % 1000 hPa 0,0 l/m 16,1 km/h (3 Bft) W22.5 260 0 min 38,3 klux 0,00 min -5,6 C -12,7 C
02.03.2006 09:15 -3,4 C -5,7 C 86 % 1000 hPa 0,0 l/m 9,8 km/h (2 Bft) W-SW22.5 255 0 min 44,8 klux 0,00 min -5,4 C -7,0 C
02.03.2006 09:30 -3,5 C -5,2 C 84 % 1000 hPa 0,0 l/m 20,1 km/h (4 Bft) SW45 230 0 min 24,4 klux 0,00 min -5,8 C -14,2 C
02.03.2006 09:45 -3,5 C -4,9 C 85 % 1000 hPa 0,0 l/m 25,3 km/h (4 Bft) W-SW45 245 0 min 49,0 klux 0,00 min -5,6 C -16,6 C
02.03.2006 10:00 -3,0 C -4,8 C 85 % 1000 hPa 0,0 l/m 25,5 km/h (4 Bft) W-SW45 250 15 min 62,1 klux 0,00 min -5,2 C -16,0 C
02.03.2006 10:15 -2,5 C -4,3 C 83 % 1000 hPa 0,0 l/m 20,5 km/h (4 Bft) SW22.5 230 15 min 63,7 klux 0,00 min -5,0 C -13,1 C
02.03.2006 10:30 -2,2 C -3,8 C 83 % 1000 hPa 0,0 l/m 22,1 km/h (4 Bft) W-SW22.5 245 15 min 82,0 klux 0,00 min -4,7 C -13,5 C
02.03.2006 10:45 -1,6 C -3,4 C 82 % 1000 hPa 0,0 l/m 25,8 km/h (4 Bft) W-SW45 255 15 min 87,2 klux 0,00 min -4,3 C -14,2 C
02.03.2006 11:00 -0,6 C -2,2 C 80 % 1000 hPa 0,0 l/m 30,1 km/h (5 Bft) W-SW22.5 255 15 min 73,6 klux 0,00 min -3,6 C -14,3 C
02.03.2006 11:15 0,3 C -1,1 C 78 % 1000 hPa 0,0 l/m 23,5 km/h (4 Bft) W-SW45 245 15 min 104 klux 0,00 min -3,1 C -10,7 C
02.03.2006 11:30 0,6 C -1,1 C 76 % 1001 hPa 0,0 l/m 25,0 km/h (4 Bft) W-SW45 250 15 min 63,3 klux 0,00 min -3,1 C -10,9 C
02.03.2006 11:45 0,9 C -0,9 C 75 % 1001 hPa 0,0 l/m 27,1 km/h (4 Bft) W45 260 15 min 105 klux 0,00 min -3,0 C -11,2 C
02.03.2006 12:00 1,4 C -0,4 C 74 % 1001 hPa 0,0 l/m 29,1 km/h (5 Bft) W22.5 260 15 min 95,1 klux 0,00 min -2,7 C -11,2 C
02.03.2006 12:15 -0,3 C -1,2 C 76 % 1001 hPa 0,0 l/m 22,1 km/h (4 Bft) W-SW22.5 255 0 min 24,0 klux 0,00 min -4,0 C -11,0 C
02.03.2006 12:31 -0,6 C -1,4 C 78 % 1001 hPa 0,0 l/m 20,3 km/h (4 Bft) W22.5 260 0 min 29,5 klux 0,00 min -3,9 C -10,5 C
02.03.2006 12:46 -0,3 C -1,6 C 77 % 1001 hPa 0,0 l/m 20,1 km/h (4 Bft) W22.5 260 0 min 32,9 klux 0,00 min -3,8 C -10,1 C
02.03.2006 13:01 -1,0 C -1,9 C 77 % 1001 hPa 0,0 l/m 26,5 km/h (4 Bft) W45 260 15 min 66,7 klux 0,00 min -4,5 C -13,6 C
02.03.2006 13:15 1,1 C -0,2 C 76 % 1001 hPa 0,0 l/m 23,6 km/h (4 Bft) W45 265 14 min 115 klux 0,00 min -2,6 C -9,7 C
02.03.2006 13:30 0,5 C -0,9 C 71 % 1001 hPa 0,0 l/m 29,1 km/h (5 Bft) W22.5 260 15 min 84,7 klux 0,00 min -4,1 C -12,4 C
02.03.2006 13:45 0,2 C 0,0 C 72 % 1001 hPa 0,0 l/m 24,1 km/h (4 Bft) W45 260 15 min 85,9 klux 0,00 min -4,2 C -11,1 C
02.03.2006 14:00 1,5 C 0,6 C 72 % 1001 hPa 0,0 l/m 23,5 km/h (4 Bft) W-SW67.5 255 15 min 88,3 klux 0,00 min -3,0 C -9,1 C
02.03.2006 14:15 1,3 C 0,6 C 68 % 1001 hPa 0,0 l/m 30,2 km/h (5 Bft) W22.5 265 15 min 79,5 klux 0,00 min -3,9 C -11,6 C
02.03.2006 14:30 1,9 C 1,1 C 68 % 1001 hPa 0,0 l/m 30,1 km/h (5 Bft) W45 260 15 min 91,6 klux 0,00 min -3,4 C -10,8 C
02.03.2006 14:45 1,0 C 0,0 C 67 % 1001 hPa 0,0 l/m 37,3 km/h (5 Bft) W45 265 15 min 78,2 klux 0,00 min -4,4 C -13,9 C
02.03.2006 15:00 -0,8 C -1,8 C 69 % 1001 hPa 0,0 l/m 34,9 km/h (5 Bft) W45 270 0 min 26,3 klux 0,00 min -5,8 C -15,9 C
02.03.2006 15:15 -1,0 C -1,8 C 69 % 1001 hPa 0,0 l/m 25,5 km/h (4 Bft) W22.5 260 15 min 66,7 klux 0,00 min -5,9 C -13,3 C
02.03.2006 15:30 -0,8 C -1,3 C 70 % 1001 hPa 0,0 l/m 24,8 km/h (4 Bft) W22.5 265 15 min 60,4 klux 0,00 min -5,6 C -12,7 C
02.03.2006 15:45 -0,4 C -1,1 C 70 % 1001 hPa 0,0 l/m 35,8 km/h (5 Bft) W22.5 260 15 min 59,5 klux 0,00 min -5,2 C -15,6 C
02.03.2006 16:00 -0,2 C -0,6 C 70 % 1001 hPa 0,0 l/m 34,5 km/h (5 Bft) W-SW22.5 250 0 min 53,6 klux 0,00 min -5,0 C -15,0 C
02.03.2006 16:15 -0,2 C -0,7 C 71 % 1001 hPa 0,0 l/m 26,9 km/h (4 Bft) W-SW45 250 0 min 52,9 klux 0,00 min -4,8 C -12,7 C
02.03.2006 16:30 -0,9 C -1,6 C 72 % 1001 hPa 0,0 l/m 22,3 km/h (4 Bft) W-SW45 250 0 min 32,0 klux 0,00 min -5,3 C -11,8 C
02.03.2006 16:45 -0,9 C -1,8 C 73 % 1001 hPa 0,0 l/m 22,6 km/h (4 Bft) W22.5 260 0 min 42,6 klux 0,00 min -5,1 C -12,0 C
02.03.2006 17:00 -1,1 C -2,2 C 73 % 1001 hPa 0,0 l/m 25,5 km/h (4 Bft) W-SW45 255 0 min 21,6 klux 0,00 min -5,3 C -13,4 C
02.03.2006 17:15 -1,4 C -2,9 C 72 % 1001 hPa 0,0 l/m 32,3 km/h (5 Bft) W22.5 260 0 min 16,9 klux 0,00 min -5,8 C -16,1 C
02.03.2006 17:30 -2,2 C -2,9 C 74 % 1001 hPa 0,0 l/m 26,9 km/h (4 Bft) W22.5 265 0 min 21,4 klux 0,00 min -6,2 C -15,4 C
02.03.2006 17:45 -2,7 C -3,4 C 76 % 1001 hPa 0,0 l/m 24,4 km/h (4 Bft) W-SW45 245 0 min 11,4 klux 0,00 min -6,3 C -15,1 C
02.03.2006 18:00 -3,2 C -4,0 C 77 % 1001 hPa 0,0 l/m 24,4 km/h (4 Bft) W-SW22.5 255 0 min 5,54 klux 0,00 min -6,6 C -15,8 C
02.03.2006 18:15 -3,5 C -4,6 C 77 % 1001 hPa 0,0 l/m 31,2 km/h (5 Bft) W-SW45 250 0 min 1,71 klux 0,00 min -6,9 C -18,7 C
02.03.2006 18:30 -4,0 C -5,4 C 77 % 1001 hPa 0,0 l/m 19,1 km/h (3 Bft) W-SW22.5 240 0 min 531 lux 0,00 min -7,4 C -14,3 C
02.03.2006 18:45 -4,5 C -5,7 C 78 % 1001 hPa 0,0 l/m 23,9 km/h (4 Bft) W-SW22.5 245 0 min 96 lux 0,00 min -7,7 C -17,3 C
02.03.2006 19:00 -4,7 C -6,2 C 79 % 1001 hPa 0,0 l/m 22,5 km/h (4 Bft) W-SW45 240 0 min 22 lux 0,00 min -7,8 C -17,0 C
02.03.2006 19:15 -4,9 C -6,2 C 81 % 1001 hPa 0,0 l/m 22,1 km/h (4 Bft) SW45 225 0 min 3 lux 0,00 min -7,6 C -17,0 C
02.03.2006 19:31 -4,8 C -6,2 C 81 % 1001 hPa 0,0 l/m 21,0 km/h (4 Bft) SW45 235 0 min 0 lux 0,00 min -7,5 C -16,4 C
02.03.2006 19:46 -5,0 C -6,3 C 82 % 1001 hPa 0,0 l/m 20,2 km/h (4 Bft) SW45 215 0 min 0 lux 0,00 min -7,6 C -16,2 C
02.03.2006 20:01 -4,8 C -6,2 C 83 % 1001 hPa 0,0 l/m 19,5 km/h (3 Bft) S-SW22.5 210 0 min 0 lux 0,00 min -7,2 C -15,6 C
02.03.2006 20:16 -4,5 C -5,7 C 85 % 1001 hPa 0,0 l/m 26,0 km/h (4 Bft) S-SW22.5 200 0 min 0 lux 0,00 min -6,6 C -18,2 C
02.03.2006 20:30 -4,2 C -5,4 C 85 % 1001 hPa 0,0 l/m 20,1 km/h (4 Bft) SW22.5 220 0 min 0 lux 0,00 min -6,3 C -15,1 C
02.03.2006 20:45 -4,0 C -5,0 C 86 % 1001 hPa 0,0 l/m 28,8 km/h (4 Bft) SW45 230 0 min 0 lux 0,00 min -6,0 C -18,6 C
02.03.2006 21:00 -3,8 C -4,7 C 87 % 1001 hPa 0,0 l/m 33,2 km/h (5 Bft) SW45 225 0 min 0 lux 0,00 min -5,6 C -19,8 C
02.03.2006 21:15 -3,8 C -4,5 C 86 % 1001 hPa 0,0 l/m 22,0 km/h (4 Bft) SW45 225 0 min 0 lux 0,00 min -5,8 C -15,5 C
02.03.2006 21:30 -3,8 C -4,4 C 87 % 1000 hPa 0,0 l/m 21,8 km/h (4 Bft) SW45 225 0 min 0 lux 0,00 min -5,6 C -15,4 C
02.03.2006 21:45 -3,6 C -4,2 C 88 % 1001 hPa 0,0 l/m 20,7 km/h (4 Bft) SW45 235 0 min 0 lux 0,00 min -5,3 C -14,6 C
02.03.2006 22:00 -3,5 C -4,0 C 88 % 1001 hPa 0,0 l/m 25,1 km/h (4 Bft) SW45 220 0 min 0 lux 0,00 min -5,2 C -16,5 C
02.03.2006 22:15 -3,4 C -3,9 C 88 % 1001 hPa 0,0 l/m 25,7 km/h (4 Bft) SW45 225 0 min 0 lux 0,00 min -5,1 C -16,6 C
02.03.2006 22:30 -3,4 C -3,8 C 88 % 1000 hPa 0,0 l/m 22,5 km/h (4 Bft) SW45 225 0 min 0 lux 0,00 min -5,1 C -15,2 C
02.03.2006 22:45 -3,4 C -3,7 C 88 % 1000 hPa 0,0 l/m 27,4 km/h (4 Bft) SW45 225 0 min 0 lux 0,00 min -5,1 C -17,3 C
02.03.2006 23:00 -3,3 C -3,6 C 88 % 1000 hPa 0,0 l/m 24,9 km/h (4 Bft) SW45 220 0 min 0 lux 0,00 min -5,0 C -16,1 C
02.03.2006 23:15 -3,4 C -3,7 C 88 % 1000 hPa 0,0 l/m 19,0 km/h (3 Bft) W-SW22.5 240 0 min 0 lux 0,00 min -5,1 C -13,5 C
02.03.2006 23:30 -3,4 C -3,6 C 88 % 1000 hPa 0,0 l/m 20,0 km/h (4 Bft) SW45 215 0 min 0 lux 0,00 min -5,1 C -14,0 C
02.03.2006 23:45 -3,4 C -3,7 C 88 % 1000 hPa 0,0 l/m 17,2 km/h (3 Bft) SW45 215 0 min 0 lux 0,00 min -5,1 C -12,5 C
02.03.2006 23:54 -3,5 C -3,9 C 88 % 1000 hPa 0,0 l/m 25,4 km/h (4 Bft) SW45 225 0 min 0 lux 0,00 min -5,2 C -16,6 C
_ Min-Zeit 07:24 19:46 14:45 03:10 - 09:15 - - - - - 19:00 08:00
Minimum _ -5,8 C -6,3 C 67 % 1000 hPa - 9,8 km/h (2 Bft) - - - - - -7,8 C -23,8 C
_ Max-Zeit 14:30 14:30 01:40 00:00 00:00 08:00 - - 10:00 13:15 00:00 13:15 09:15
Maximum _ 1,9 C 1,1 C 91 % 1001 hPa 0,0 l/m 38,4 km/h
W (5 Bft)
- - 15 min 115 klux 0,00 min -2,6 C -7,0 C
Durchschnitt _ -3,3 C -3,8 C 83 % 1001 hPa #0,0 l/m 24,3 km/h (4 Bft) W-SW - #4:59 h 22,4 klux #0 min. -5,8 C -15,7 C